createdAt,value
2023-04-09T00:01:13.629Z,79.82
2023-04-09T00:04:16.777Z,79.19
2023-04-09T00:07:19.549Z,78.60
2023-04-09T00:10:22.970Z,78.39
2023-04-09T00:13:38.697Z,78.83
2023-04-09T00:16:43.006Z,78.54
2023-04-09T00:19:45.798Z,79.00
2023-04-09T00:22:49.829Z,78.99
2023-04-09T00:25:52.253Z,79.27
2023-04-09T00:28:56.313Z,79.80
2023-04-09T00:32:00.340Z,79.34
2023-04-09T00:35:03.610Z,79.65
2023-04-09T00:38:06.290Z,79.66
2023-04-09T00:41:09.382Z,79.55
2023-04-09T00:44:11.929Z,79.27
2023-04-09T00:47:15.537Z,79.20
2023-04-09T00:50:18.261Z,79.65
2023-04-09T00:53:21.822Z,78.91
2023-04-09T00:56:25.749Z,78.62
2023-04-09T00:59:28.957Z,78.30
2023-04-09T01:02:31.739Z,77.88
2023-04-09T01:05:47.854Z,78.33
2023-04-09T01:09:10.481Z,78.81
2023-04-09T01:12:23.157Z,79.77
2023-04-09T01:15:29.383Z,80.28
2023-04-09T01:18:43.110Z,80.34
2023-04-09T01:21:46.669Z,79.53
2023-04-09T01:25:04.819Z,79.84
2023-04-09T01:28:27.896Z,79.74
2023-04-09T01:31:36.318Z,79.15
2023-04-09T01:34:40.820Z,79.55
2023-04-09T01:37:44.379Z,79.77
2023-04-09T01:40:48.769Z,80.06
2023-04-09T01:43:53.560Z,79.86
2023-04-09T01:46:58.221Z,79.87
2023-04-09T01:50:02.607Z,80.31
2023-04-09T01:53:05.844Z,80.39
2023-04-09T01:56:09.773Z,79.84
2023-04-09T01:59:12.769Z,80.13
2023-04-09T02:02:21.241Z,80.27
2023-04-09T02:05:29.187Z,80.45
2023-04-09T02:08:34.819Z,80.50
2023-04-09T02:11:41.778Z,80.42
2023-04-09T02:14:47.210Z,80.57
2023-04-09T02:17:50.528Z,80.62
2023-04-09T02:20:54.674Z,81.02
2023-04-09T02:23:57.575Z,80.57
2023-04-09T02:27:00.584Z,79.45
2023-04-09T02:30:04.198Z,79.33
2023-04-09T02:33:07.322Z,79.71
2023-04-09T02:36:13.545Z,79.57
2023-04-09T02:39:16.504Z,79.38
2023-04-09T02:42:20.481Z,79.45
2023-04-09T02:45:23.482Z,79.27
2023-04-09T02:48:26.513Z,79.18
2023-04-09T02:51:29.621Z,79.31
2023-04-09T02:54:32.446Z,79.60
2023-04-09T02:57:36.405Z,80.22
2023-04-09T03:00:39.349Z,80.12
2023-04-09T03:03:43.138Z,79.89
2023-04-09T03:06:45.935Z,80.38
2023-04-09T03:09:48.850Z,80.03
2023-04-09T03:12:52.477Z,80.52
2023-04-09T03:15:55.734Z,79.73
2023-04-09T03:18:58.601Z,79.97
2023-04-09T03:22:01.909Z,79.23
2023-04-09T03:25:06.519Z,78.62
2023-04-09T03:28:09.926Z,79.14
2023-04-09T03:31:14.296Z,79.37
2023-04-09T03:34:17.732Z,78.57
2023-04-09T03:37:22.940Z,79.62
2023-04-09T03:40:26.062Z,80.15
2023-04-09T03:43:28.944Z,79.69
2023-04-09T03:46:31.928Z,79.32
2023-04-09T03:49:36.481Z,79.94
2023-04-09T03:52:40.089Z,80.35
2023-04-09T03:55:43.756Z,80.56
2023-04-09T03:58:50.702Z,80.57
2023-04-09T04:01:54.150Z,80.81
2023-04-09T04:04:57.461Z,80.59
2023-04-09T04:08:01.042Z,80.76
2023-04-09T04:11:05.378Z,80.87
2023-04-09T04:14:08.849Z,80.73
2023-04-09T04:17:12.966Z,80.70
2023-04-09T04:20:15.725Z,80.69
2023-04-09T04:23:23.049Z,80.62
2023-04-09T04:26:26.177Z,80.90
2023-04-09T04:29:29.965Z,80.72
2023-04-09T04:32:32.744Z,80.80
2023-04-09T04:35:39.332Z,80.38
2023-04-09T04:38:42.868Z,80.98
2023-04-09T04:41:48.163Z,80.64
2023-04-09T04:44:51.030Z,80.98
2023-04-09T04:47:57.374Z,80.95
2023-04-09T04:51:02.061Z,80.72
2023-04-09T04:54:06.020Z,80.11
2023-04-09T04:57:08.708Z,80.68
2023-04-09T05:00:13.094Z,80.47
2023-04-09T05:03:19.480Z,80.43
2023-04-09T05:06:27.985Z,79.99
2023-04-09T05:09:30.862Z,79.87
2023-04-09T05:12:34.562Z,79.92
2023-04-09T05:15:41.820Z,79.52
2023-04-09T05:18:45.817Z,78.91
2023-04-09T05:21:48.414Z,78.50
2023-04-09T05:24:54.548Z,78.92
2023-04-09T05:27:57.496Z,79.73
2023-04-09T05:31:01.001Z,79.52
2023-04-09T05:34:03.791Z,78.94
2023-04-09T05:37:07.655Z,79.31
2023-04-09T05:40:11.550Z,79.64
2023-04-09T05:43:14.891Z,78.13
2023-04-09T05:46:18.425Z,78.11
2023-04-09T05:49:22.264Z,77.53
2023-04-09T05:52:25.682Z,77.80
2023-04-09T05:55:31.056Z,78.35
2023-04-09T05:58:34.011Z,77.92
2023-04-09T06:01:37.435Z,77.30
2023-04-09T06:04:40.383Z,76.73
2023-04-09T06:07:43.621Z,76.46
2023-04-09T06:10:46.386Z,77.08
2023-04-09T06:13:49.284Z,76.01
2023-04-09T06:16:52.138Z,75.61
2023-04-09T06:19:54.949Z,75.46
2023-04-09T06:22:57.894Z,75.38
2023-04-09T06:26:01.477Z,75.02
2023-04-09T06:29:04.889Z,75.46
2023-04-09T06:32:08.270Z,74.89
2023-04-09T06:35:11.290Z,73.56
2023-04-09T06:38:14.162Z,73.27
2023-04-09T06:41:17.139Z,73.58
2023-04-09T06:44:21.488Z,73.96
2023-04-09T06:47:24.685Z,72.85
2023-04-09T06:50:27.858Z,72.33
2023-04-09T06:53:30.708Z,71.54
2023-04-09T06:56:34.677Z,71.58
2023-04-09T06:59:37.473Z,71.49
2023-04-09T07:02:40.635Z,70.93
2023-04-09T07:05:43.792Z,70.35
2023-04-09T07:08:47.246Z,70.23
2023-04-09T07:11:50.045Z,71.15
2023-04-09T07:14:52.830Z,71.38
2023-04-09T07:17:57.663Z,69.56
2023-04-09T07:21:01.011Z,68.38
2023-04-09T07:24:04.012Z,67.48
2023-04-09T07:27:06.847Z,68.17
2023-04-09T07:30:10.868Z,68.46
2023-04-09T07:33:13.820Z,67.44
2023-04-09T07:36:16.680Z,67.95
2023-04-09T07:39:21.086Z,65.25
2023-04-09T07:42:24.094Z,63.95
2023-04-09T07:45:27.028Z,64.52
2023-04-09T07:48:30.062Z,62.86
2023-04-09T07:51:32.899Z,62.47
2023-04-09T07:54:35.812Z,61.93
2023-04-09T07:57:38.878Z,62.05
2023-04-09T08:00:41.711Z,60.07
2023-04-09T08:03:45.553Z,59.79
2023-04-09T08:06:51.232Z,58.96
2023-04-09T08:09:54.319Z,57.27
2023-04-09T08:12:56.871Z,57.40
2023-04-09T08:16:03.906Z,55.21
2023-04-09T08:19:07.164Z,54.71
2023-04-09T08:22:10.526Z,54.02
2023-04-09T08:25:13.069Z,54.51
2023-04-09T08:28:16.370Z,54.11
2023-04-09T08:31:19.029Z,53.57
2023-04-09T08:34:22.204Z,53.13
2023-04-09T08:37:24.883Z,53.26
2023-04-09T08:40:27.885Z,53.03
2023-04-09T08:43:47.200Z,52.49
2023-04-09T08:46:57.133Z,52.44
2023-04-09T08:50:00.919Z,51.28
2023-04-09T08:53:05.862Z,50.12
2023-04-09T08:56:08.392Z,50.44
2023-04-09T08:59:11.606Z,49.71
2023-04-09T09:02:14.461Z,50.00
2023-04-09T09:05:17.626Z,50.26
2023-04-09T09:08:24.862Z,51.01
2023-04-09T09:11:28.375Z,51.18
2023-04-09T09:14:33.279Z,52.84
2023-04-09T09:17:54.638Z,51.34
2023-04-09T09:21:13.575Z,52.60
2023-04-09T09:24:17.727Z,53.19
2023-04-09T09:27:34.317Z,52.30
2023-04-09T09:30:39.210Z,52.07
2023-04-09T09:33:42.408Z,53.18
2023-04-09T09:36:46.510Z,53.58
2023-04-09T09:39:49.059Z,51.65
2023-04-09T09:42:57.074Z,51.37
2023-04-09T09:46:00.525Z,50.62
2023-04-09T09:49:04.308Z,50.61
2023-04-09T09:52:11.468Z,51.68
2023-04-09T09:55:16.830Z,53.35
2023-04-09T09:58:32.142Z,52.71
2023-04-09T10:01:36.755Z,54.72
2023-04-09T10:04:40.612Z,53.75
2023-04-09T10:07:44.958Z,53.33
2023-04-09T10:10:48.601Z,53.08
2023-04-09T10:13:57.990Z,52.85
2023-04-09T10:17:01.106Z,54.51
2023-04-09T10:20:16.018Z,54.54
2023-04-09T10:23:31.583Z,54.53
2023-04-09T10:26:41.104Z,54.90
2023-04-09T10:29:48.882Z,55.53
2023-04-09T10:32:53.357Z,54.25
2023-04-09T10:36:03.273Z,54.31
2023-04-09T10:39:13.751Z,53.61
2023-04-09T10:42:40.318Z,53.27
2023-04-09T10:45:43.155Z,54.01
2023-04-09T10:48:46.129Z,51.88
2023-04-09T10:51:54.827Z,52.21
2023-04-09T10:54:57.729Z,50.79
2023-04-09T10:58:00.691Z,50.74
2023-04-09T11:01:03.546Z,51.31
2023-04-09T11:04:17.281Z,50.43
2023-04-09T11:07:23.968Z,50.62
2023-04-09T11:10:26.917Z,51.86
2023-04-09T11:13:31.682Z,50.89
2023-04-09T11:16:34.794Z,52.32
2023-04-09T11:19:37.689Z,53.59
2023-04-09T11:22:40.774Z,53.53
2023-04-09T11:25:49.422Z,54.59
2023-04-09T11:28:57.238Z,55.67
2023-04-09T11:32:00.344Z,56.37
2023-04-09T11:35:03.661Z,54.80
2023-04-09T11:38:08.830Z,54.67
2023-04-09T11:41:13.547Z,53.96
2023-04-09T11:44:16.558Z,53.94
2023-04-09T11:47:19.811Z,53.76
2023-04-09T11:50:22.902Z,51.88
2023-04-09T11:53:31.187Z,51.76
2023-04-09T11:56:35.887Z,52.47
2023-04-09T11:59:39.706Z,51.50
2023-04-09T12:02:44.435Z,50.92
2023-04-09T12:05:51.002Z,49.66
2023-04-09T12:08:56.201Z,50.54
2023-04-09T12:11:59.466Z,49.86
2023-04-09T12:15:10.485Z,48.47
2023-04-09T12:18:14.110Z,47.48
2023-04-09T12:21:19.119Z,49.40
2023-04-09T12:24:26.513Z,47.28
2023-04-09T12:27:29.097Z,47.34
2023-04-09T12:30:32.538Z,48.06
2023-04-09T12:33:38.043Z,45.02
2023-04-09T12:36:41.741Z,43.67
2023-04-09T12:39:44.503Z,43.76
2023-04-09T12:42:47.947Z,44.43
2023-04-09T12:45:50.450Z,40.77
2023-04-09T12:48:53.913Z,40.64
2023-04-09T12:51:56.465Z,38.81
2023-04-09T12:54:59.465Z,38.30
2023-04-09T12:58:03.108Z,37.24
2023-04-09T13:01:06.786Z,36.65
2023-04-09T13:04:09.634Z,38.20
2023-04-09T13:07:15.622Z,38.24
2023-04-09T13:10:18.338Z,38.78
2023-04-09T13:13:21.559Z,41.93
2023-04-09T13:16:24.128Z,40.45
2023-04-09T13:19:28.225Z,42.60
2023-04-09T13:22:31.042Z,42.38
2023-04-09T13:25:34.248Z,42.60
2023-04-09T13:28:37.122Z,40.79
2023-04-09T13:31:40.281Z,40.76
2023-04-09T13:34:42.930Z,41.17
2023-04-09T13:37:46.285Z,43.08
2023-04-09T13:40:48.943Z,42.18
2023-04-09T13:43:52.095Z,41.55
2023-04-09T13:46:54.819Z,41.62
2023-04-09T13:49:57.929Z,43.79
2023-04-09T13:53:03.064Z,42.61
2023-04-09T13:56:06.697Z,42.30
2023-04-09T13:59:09.163Z,43.66
2023-04-09T14:02:12.397Z,42.45
2023-04-09T14:05:15.461Z,43.01
2023-04-09T14:08:18.476Z,42.90
2023-04-09T14:11:21.286Z,44.67
2023-04-09T14:14:24.167Z,44.64
2023-04-09T14:17:27.156Z,44.28
2023-04-09T14:20:29.958Z,44.97
2023-04-09T14:23:32.873Z,45.30
2023-04-09T14:26:35.734Z,44.02
2023-04-09T14:29:38.543Z,42.69
2023-04-09T14:32:41.373Z,42.54
2023-04-09T14:35:44.301Z,43.72
2023-04-09T14:38:48.673Z,44.86
2023-04-09T14:41:51.857Z,41.40
2023-04-09T14:44:54.663Z,42.75
2023-04-09T14:47:57.643Z,42.31
2023-04-09T14:51:00.533Z,40.79
2023-04-09T14:54:03.454Z,40.14
2023-04-09T14:57:07.013Z,43.66
2023-04-09T15:00:12.151Z,45.81
2023-04-09T15:03:15.251Z,42.59
2023-04-09T15:06:18.296Z,43.79
2023-04-09T15:09:21.175Z,45.17
2023-04-09T15:12:23.964Z,45.19
2023-04-09T15:15:26.946Z,43.93
2023-04-09T15:18:29.768Z,44.65
2023-04-09T15:21:32.664Z,43.50
2023-04-09T15:24:35.687Z,46.10
2023-04-09T15:27:38.666Z,47.83
2023-04-09T15:30:41.911Z,47.75
2023-04-09T15:33:45.507Z,48.87
2023-04-09T15:36:48.363Z,46.95
2023-04-09T15:39:51.633Z,48.02
2023-04-09T15:42:55.140Z,50.67
2023-04-09T15:45:57.997Z,49.11
2023-04-09T15:49:01.402Z,49.49
2023-04-09T15:52:04.392Z,51.98
2023-04-09T15:55:07.801Z,52.34
2023-04-09T15:58:10.717Z,52.65
2023-04-09T16:01:15.140Z,53.72
2023-04-09T16:04:18.424Z,53.13
2023-04-09T16:07:20.948Z,53.68
2023-04-09T16:10:24.074Z,52.27
2023-04-09T16:13:27.144Z,52.03
2023-04-09T16:16:30.317Z,53.92
2023-04-09T16:19:32.942Z,53.71
2023-04-09T16:22:36.206Z,53.36
2023-04-09T16:25:39.010Z,53.87
2023-04-09T16:28:42.161Z,54.62
2023-04-09T16:31:44.828Z,54.06
2023-04-09T16:34:47.888Z,55.40
2023-04-09T16:37:51.899Z,54.60
2023-04-09T16:40:56.066Z,54.29
2023-04-09T16:43:58.734Z,53.80
2023-04-09T16:47:02.759Z,54.04
2023-04-09T16:50:10.481Z,53.44
2023-04-09T16:53:13.718Z,53.08
2023-04-09T16:56:16.740Z,53.80
2023-04-09T16:59:21.100Z,53.74
2023-04-09T17:02:24.684Z,54.59
2023-04-09T17:05:27.980Z,55.24
2023-04-09T17:08:30.770Z,56.65
2023-04-09T17:11:34.022Z,55.27
2023-04-09T17:14:38.785Z,54.88
2023-04-09T17:17:43.644Z,55.79
2023-04-09T17:20:46.688Z,55.58
2023-04-09T17:23:49.845Z,55.24
2023-04-09T17:26:52.337Z,54.78
2023-04-09T17:29:55.521Z,54.98
2023-04-09T17:32:58.102Z,56.61
2023-04-09T17:36:01.544Z,55.68
2023-04-09T17:39:04.040Z,55.47
2023-04-09T17:42:07.806Z,56.41
2023-04-09T17:45:10.951Z,55.78
2023-04-09T17:48:14.093Z,55.52
2023-04-09T17:51:19.518Z,55.49
2023-04-09T17:54:22.720Z,55.95
2023-04-09T17:57:25.316Z,55.81
2023-04-09T18:00:28.503Z,56.18
2023-04-09T18:03:31.772Z,57.63
2023-04-09T18:06:34.778Z,56.77
2023-04-09T18:09:39.244Z,57.23
2023-04-09T18:12:42.215Z,58.64
2023-04-09T18:15:45.101Z,58.44
2023-04-09T18:18:48.022Z,58.23
2023-04-09T18:21:51.050Z,57.92
2023-04-09T18:24:54.268Z,58.28
2023-04-09T18:27:59.290Z,58.00
2023-04-09T18:31:02.148Z,58.89
2023-04-09T18:34:05.089Z,59.34
2023-04-09T18:37:08.259Z,59.05
2023-04-09T18:40:20.164Z,59.15
2023-04-09T18:43:23.289Z,59.76
2023-04-09T18:46:26.654Z,59.60
2023-04-09T18:49:29.630Z,60.39
2023-04-09T18:52:32.524Z,60.91
2023-04-09T18:55:38.468Z,60.47
2023-04-09T18:58:41.569Z,60.28
2023-04-09T19:01:44.521Z,60.32
2023-04-09T19:04:47.877Z,61.16
2023-04-09T19:07:50.702Z,61.25
2023-04-09T19:10:55.562Z,61.20
2023-04-09T19:13:58.449Z,62.04
2023-04-09T19:17:02.404Z,62.27
2023-04-09T19:20:05.759Z,62.19
2023-04-09T19:23:09.958Z,62.47
2023-04-09T19:26:12.869Z,62.56
2023-04-09T19:29:15.668Z,62.60
2023-04-09T19:32:18.548Z,62.57
2023-04-09T19:35:22.015Z,62.55
2023-04-09T19:38:25.098Z,62.85
2023-04-09T19:41:28.076Z,63.26
2023-04-09T19:44:30.984Z,63.62
2023-04-09T19:47:34.807Z,63.98
2023-04-09T19:50:40.571Z,64.10
2023-04-09T19:53:46.101Z,64.26
2023-04-09T19:56:50.152Z,64.08
2023-04-09T19:59:54.124Z,64.32
2023-04-09T20:02:57.611Z,64.42
2023-04-09T20:06:00.971Z,64.70
2023-04-09T20:09:03.881Z,64.95
2023-04-09T20:12:08.824Z,65.22
2023-04-09T20:15:11.912Z,65.51
2023-04-09T20:18:14.762Z,65.11
2023-04-09T20:21:17.666Z,65.40
2023-04-09T20:24:22.375Z,65.77
2023-04-09T20:27:25.466Z,65.95
2023-04-09T20:30:28.286Z,66.25
2023-04-09T20:33:32.183Z,66.40
2023-04-09T20:36:37.556Z,66.63
2023-04-09T20:39:40.710Z,66.75
2023-04-09T20:42:43.867Z,66.98
2023-04-09T20:45:46.996Z,67.30
2023-04-09T20:48:49.821Z,67.49
2023-04-09T20:51:52.600Z,67.65
2023-04-09T20:54:57.088Z,67.73
2023-04-09T20:58:00.242Z,67.84
2023-04-09T21:01:09.210Z,67.97
2023-04-09T21:04:12.909Z,68.41
2023-04-09T21:07:16.242Z,68.50
2023-04-09T21:10:19.081Z,68.66
2023-04-09T21:13:23.379Z,68.60
2023-04-09T21:16:28.477Z,68.90
2023-04-09T21:19:31.558Z,69.07
2023-04-09T21:22:34.901Z,68.97
2023-04-09T21:25:37.742Z,69.13
2023-04-09T21:28:40.653Z,69.20
2023-04-09T21:31:43.481Z,69.16
2023-04-09T21:34:46.326Z,69.43
2023-04-09T21:37:49.148Z,69.49
2023-04-09T21:40:51.931Z,69.52
2023-04-09T21:43:54.725Z,69.58
2023-04-09T21:46:57.599Z,69.71
2023-04-09T21:50:00.567Z,69.79
2023-04-09T21:53:03.500Z,69.85
2023-04-09T21:56:06.758Z,70.00
2023-04-09T21:59:09.788Z,70.06
2023-04-09T22:02:12.823Z,70.19
2023-04-09T22:05:16.370Z,70.34
2023-04-09T22:08:18.984Z,70.51
2023-04-09T22:11:25.852Z,70.75
2023-04-09T22:14:29.745Z,70.97
2023-04-09T22:17:33.063Z,71.01
2023-04-09T22:20:36.260Z,71.18
2023-04-09T22:23:39.409Z,71.29
2023-04-09T22:26:46.516Z,71.20
2023-04-09T22:29:49.920Z,71.28
2023-04-09T22:32:52.674Z,71.31
2023-04-09T22:35:56.145Z,71.36
2023-04-09T22:38:58.721Z,71.33
2023-04-09T22:42:01.933Z,71.16
2023-04-09T22:45:04.720Z,70.63
2023-04-09T22:48:08.256Z,70.35
2023-04-09T22:51:11.390Z,70.52
2023-04-09T22:54:14.360Z,70.58
2023-04-09T22:57:16.879Z,70.65
2023-04-09T23:00:20.074Z,70.48
2023-04-09T23:03:22.857Z,70.51
2023-04-09T23:06:26.238Z,70.68
2023-04-09T23:09:30.279Z,70.59
2023-04-09T23:12:33.440Z,70.62
2023-04-09T23:15:36.034Z,70.77
2023-04-09T23:18:39.230Z,70.67
2023-04-09T23:21:41.856Z,70.71
2023-04-09T23:24:45.754Z,70.80
2023-04-09T23:27:48.411Z,70.42
2023-04-09T23:30:51.501Z,70.57
2023-04-09T23:33:54.178Z,70.17
2023-04-09T23:36:57.365Z,70.52
2023-04-09T23:39:59.734Z,70.61
2023-04-09T23:43:02.800Z,70.68
2023-04-09T23:46:05.520Z,70.83
2023-04-09T23:49:08.732Z,70.62
2023-04-09T23:52:11.557Z,70.85
2023-04-09T23:55:15.461Z,70.65
2023-04-09T23:58:18.871Z,70.88
